sensor_id;sensor_type;location;lat;lon;timestamp;temperature;humidity
56538;DHT22;42435;53.292;6.000;2022-09-09T00:02:22;16.00;83.50
56538;DHT22;42435;53.292;6.000;2022-09-09T00:05:08;16.00;83.60
56538;DHT22;42435;53.292;6.000;2022-09-09T00:07:49;15.90;83.70
56538;DHT22;42435;53.292;6.000;2022-09-09T00:10:29;15.90;83.80
56538;DHT22;42435;53.292;6.000;2022-09-09T00:16:17;15.90;83.80
56538;DHT22;42435;53.292;6.000;2022-09-09T00:24:29;15.80;83.60
56538;DHT22;42435;53.292;6.000;2022-09-09T00:27:06;15.80;83.80
56538;DHT22;42435;53.292;6.000;2022-09-09T00:29:45;15.80;83.70
56538;DHT22;42435;53.292;6.000;2022-09-09T00:32:17;15.80;83.70
56538;DHT22;42435;53.292;6.000;2022-09-09T00:35:03;15.80;83.80
56538;DHT22;42435;53.292;6.000;2022-09-09T00:37:37;15.80;83.70
56538;DHT22;42435;53.292;6.000;2022-09-09T00:40:24;15.80;83.70
56538;DHT22;42435;53.292;6.000;2022-09-09T00:43:04;15.80;83.70
56538;DHT22;42435;53.292;6.000;2022-09-09T00:48:30;15.70;83.70
56538;DHT22;42435;53.292;6.000;2022-09-09T00:51:17;15.70;83.70
56538;DHT22;42435;53.292;6.000;2022-09-09T00:56:39;15.70;83.70
56538;DHT22;42435;53.292;6.000;2022-09-09T01:01:36;15.60;83.70
56538;DHT22;42435;53.292;6.000;2022-09-09T01:04:07;15.60;83.80
56538;DHT22;42435;53.292;6.000;2022-09-09T01:06:36;15.60;83.80
56538;DHT22;42435;53.292;6.000;2022-09-09T01:09:43;15.60;83.80
56538;DHT22;42435;53.292;6.000;2022-09-09T01:12:16;15.60;83.70
56538;DHT22;42435;53.292;6.000;2022-09-09T01:14:49;15.60;83.90
56538;DHT22;42435;53.292;6.000;2022-09-09T01:17:24;15.50;83.90
56538;DHT22;42435;53.292;6.000;2022-09-09T01:20:20;15.50;83.90
56538;DHT22;42435;53.292;6.000;2022-09-09T01:28:50;15.50;83.60
56538;DHT22;42435;53.292;6.000;2022-09-09T01:31:38;15.50;83.80
56538;DHT22;42435;53.292;6.000;2022-09-09T01:34:14;15.40;83.90
56538;DHT22;42435;53.292;6.000;2022-09-09T01:36:51;15.40;83.80
56538;DHT22;42435;53.292;6.000;2022-09-09T01:39:19;15.40;83.80
56538;DHT22;42435;53.292;6.000;2022-09-09T01:41:45;15.40;83.80
56538;DHT22;42435;53.292;6.000;2022-09-09T01:44:11;15.40;83.90
56538;DHT22;42435;53.292;6.000;2022-09-09T01:46:37;15.40;83.90
56538;DHT22;42435;53.292;6.000;2022-09-09T01:49:08;15.40;83.90
56538;DHT22;42435;53.292;6.000;2022-09-09T01:51:35;15.40;83.90
56538;DHT22;42435;53.292;6.000;2022-09-09T01:54:01;15.40;83.80
56538;DHT22;42435;53.292;6.000;2022-09-09T01:57:06;15.40;83.80
56538;DHT22;42435;53.292;6.000;2022-09-09T01:59:48;15.40;83.70
56538;DHT22;42435;53.292;6.000;2022-09-09T02:02:18;15.40;83.80
56538;DHT22;42435;53.292;6.000;2022-09-09T02:04:47;15.40;83.90
56538;DHT22;42435;53.292;6.000;2022-09-09T02:09:47;15.30;84.00
56538;DHT22;42435;53.292;6.000;2022-09-09T02:12:18;15.30;83.90
56538;DHT22;42435;53.292;6.000;2022-09-09T02:14:56;15.40;84.00
56538;DHT22;42435;53.292;6.000;2022-09-09T02:17:30;15.30;84.10
56538;DHT22;42435;53.292;6.000;2022-09-09T02:20:16;15.30;84.00
56538;DHT22;42435;53.292;6.000;2022-09-09T02:22:46;15.30;84.00
56538;DHT22;42435;53.292;6.000;2022-09-09T02:25:15;15.30;84.10
56538;DHT22;42435;53.292;6.000;2022-09-09T02:27:43;15.30;84.20
56538;DHT22;42435;53.292;6.000;2022-09-09T02:30:11;15.30;84.10
56538;DHT22;42435;53.292;6.000;2022-09-09T02:32:38;15.20;84.20
56538;DHT22;42435;53.292;6.000;2022-09-09T02:35:15;15.20;84.10
56538;DHT22;42435;53.292;6.000;2022-09-09T02:37:42;15.20;84.10
56538;DHT22;42435;53.292;6.000;2022-09-09T02:40:12;15.20;84.10
56538;DHT22;42435;53.292;6.000;2022-09-09T02:42:43;15.20;84.10
56538;DHT22;42435;53.292;6.000;2022-09-09T02:45:10;15.10;84.10
56538;DHT22;42435;53.292;6.000;2022-09-09T02:47:46;15.10;84.10
56538;DHT22;42435;53.292;6.000;2022-09-09T02:50:33;15.10;84.20
56538;DHT22;42435;53.292;6.000;2022-09-09T02:53:11;15.10;84.10
56538;DHT22;42435;53.292;6.000;2022-09-09T02:55:52;15.10;84.20
56538;DHT22;42435;53.292;6.000;2022-09-09T02:58:20;15.10;84.10
56538;DHT22;42435;53.292;6.000;2022-09-09T03:00:49;15.10;84.20
56538;DHT22;42435;53.292;6.000;2022-09-09T03:03:16;15.00;84.10
56538;DHT22;42435;53.292;6.000;2022-09-09T03:05:43;15.10;84.10
56538;DHT22;42435;53.292;6.000;2022-09-09T03:08:09;15.00;84.10
56538;DHT22;42435;53.292;6.000;2022-09-09T03:10:35;15.00;84.10
56538;DHT22;42435;53.292;6.000;2022-09-09T03:13:02;15.00;84.20
56538;DHT22;42435;53.292;6.000;2022-09-09T03:15:30;15.00;84.20
56538;DHT22;42435;53.292;6.000;2022-09-09T03:17:57;15.00;84.10
56538;DHT22;42435;53.292;6.000;2022-09-09T03:20:24;15.00;84.10
56538;DHT22;42435;53.292;6.000;2022-09-09T03:22:52;15.00;84.10
56538;DHT22;42435;53.292;6.000;2022-09-09T03:25:18;14.90;84.10
56538;DHT22;42435;53.292;6.000;2022-09-09T03:27:44;14.90;84.10
56538;DHT22;42435;53.292;6.000;2022-09-09T03:30:09;14.90;84.20
56538;DHT22;42435;53.292;6.000;2022-09-09T03:32:36;14.90;84.20
56538;DHT22;42435;53.292;6.000;2022-09-09T03:35:02;14.90;84.20
56538;DHT22;42435;53.292;6.000;2022-09-09T03:37:28;14.90;84.30
56538;DHT22;42435;53.292;6.000;2022-09-09T03:39:53;14.90;84.30
56538;DHT22;42435;53.292;6.000;2022-09-09T03:42:22;14.90;84.40
56538;DHT22;42435;53.292;6.000;2022-09-09T03:44:48;14.90;84.50
56538;DHT22;42435;53.292;6.000;2022-09-09T03:47:19;14.90;84.50
56538;DHT22;42435;53.292;6.000;2022-09-09T03:49:47;15.00;84.50
56538;DHT22;42435;53.292;6.000;2022-09-09T03:52:14;14.90;84.50
56538;DHT22;42435;53.292;6.000;2022-09-09T03:54:40;15.00;84.50
56538;DHT22;42435;53.292;6.000;2022-09-09T03:57:06;15.00;84.50
56538;DHT22;42435;53.292;6.000;2022-09-09T03:59:32;15.00;84.50
56538;DHT22;42435;53.292;6.000;2022-09-09T04:01:58;15.00;84.50
56538;DHT22;42435;53.292;6.000;2022-09-09T04:04:24;15.00;84.40
56538;DHT22;42435;53.292;6.000;2022-09-09T04:06:51;15.00;84.40
56538;DHT22;42435;53.292;6.000;2022-09-09T04:09:17;15.00;84.40
56538;DHT22;42435;53.292;6.000;2022-09-09T04:11:43;15.10;84.40
56538;DHT22;42435;53.292;6.000;2022-09-09T04:14:08;15.10;84.40
56538;DHT22;42435;53.292;6.000;2022-09-09T04:16:34;15.10;84.50
56538;DHT22;42435;53.292;6.000;2022-09-09T04:19:02;15.20;84.40
56538;DHT22;42435;53.292;6.000;2022-09-09T04:21:30;15.20;84.40
56538;DHT22;42435;53.292;6.000;2022-09-09T04:23:55;15.20;84.40
56538;DHT22;42435;53.292;6.000;2022-09-09T04:26:21;15.20;84.40
56538;DHT22;42435;53.292;6.000;2022-09-09T04:28:47;15.20;84.30
56538;DHT22;42435;53.292;6.000;2022-09-09T04:31:17;15.20;84.30
56538;DHT22;42435;53.292;6.000;2022-09-09T04:33:43;15.20;84.40
56538;DHT22;42435;53.292;6.000;2022-09-09T04:36:09;15.20;84.40
56538;DHT22;42435;53.292;6.000;2022-09-09T04:38:35;15.20;84.40
56538;DHT22;42435;53.292;6.000;2022-09-09T04:41:01;15.20;84.50
56538;DHT22;42435;53.292;6.000;2022-09-09T04:43:27;15.20;84.50
56538;DHT22;42435;53.292;6.000;2022-09-09T04:45:53;15.20;84.50
56538;DHT22;42435;53.292;6.000;2022-09-09T04:48:19;15.20;84.50
56538;DHT22;42435;53.292;6.000;2022-09-09T04:50:54;15.10;84.60
56538;DHT22;42435;53.292;6.000;2022-09-09T04:53:20;15.20;84.70
56538;DHT22;42435;53.292;6.000;2022-09-09T04:55:46;15.20;84.70
56538;DHT22;42435;53.292;6.000;2022-09-09T04:58:11;15.20;84.70
56538;DHT22;42435;53.292;6.000;2022-09-09T05:00:37;15.20;84.70
56538;DHT22;42435;53.292;6.000;2022-09-09T05:03:04;15.30;84.70
56538;DHT22;42435;53.292;6.000;2022-09-09T05:05:30;15.30;84.80
56538;DHT22;42435;53.292;6.000;2022-09-09T05:08:04;15.30;84.80
56538;DHT22;42435;53.292;6.000;2022-09-09T05:10:30;15.30;84.90
56538;DHT22;42435;53.292;6.000;2022-09-09T05:12:56;15.30;84.80
56538;DHT22;42435;53.292;6.000;2022-09-09T05:15:22;15.40;84.90
56538;DHT22;42435;53.292;6.000;2022-09-09T05:17:48;15.40;84.90
56538;DHT22;42435;53.292;6.000;2022-09-09T05:20:13;15.40;84.90
56538;DHT22;42435;53.292;6.000;2022-09-09T05:22:39;15.40;84.90
56538;DHT22;42435;53.292;6.000;2022-09-09T05:25:06;15.50;84.90
56538;DHT22;42435;53.292;6.000;2022-09-09T05:27:34;15.50;84.90
56538;DHT22;42435;53.292;6.000;2022-09-09T05:29:59;15.60;84.90
56538;DHT22;42435;53.292;6.000;2022-09-09T05:32:25;15.60;84.90
56538;DHT22;42435;53.292;6.000;2022-09-09T05:34:51;15.70;84.90
56538;DHT22;42435;53.292;6.000;2022-09-09T05:37:17;15.70;84.90
56538;DHT22;42435;53.292;6.000;2022-09-09T05:39:43;15.80;84.90
56538;DHT22;42435;53.292;6.000;2022-09-09T05:42:09;15.90;84.80
56538;DHT22;42435;53.292;6.000;2022-09-09T05:44:34;15.90;84.70
56538;DHT22;42435;53.292;6.000;2022-09-09T05:47:00;15.90;84.70
56538;DHT22;42435;53.292;6.000;2022-09-09T05:49:25;15.90;84.70
56538;DHT22;42435;53.292;6.000;2022-09-09T05:51:51;16.00;84.60
56538;DHT22;42435;53.292;6.000;2022-09-09T05:54:17;16.10;84.50
56538;DHT22;42435;53.292;6.000;2022-09-09T05:56:42;16.10;84.50
56538;DHT22;42435;53.292;6.000;2022-09-09T05:59:08;16.10;84.50
56538;DHT22;42435;53.292;6.000;2022-09-09T06:01:36;16.20;84.40
56538;DHT22;42435;53.292;6.000;2022-09-09T06:04:05;16.30;84.30
56538;DHT22;42435;53.292;6.000;2022-09-09T06:06:34;16.30;84.20
56538;DHT22;42435;53.292;6.000;2022-09-09T06:09:05;16.40;84.20
56538;DHT22;42435;53.292;6.000;2022-09-09T06:11:36;16.40;84.10
56538;DHT22;42435;53.292;6.000;2022-09-09T06:14:02;16.40;84.00
56538;DHT22;42435;53.292;6.000;2022-09-09T06:16:29;16.40;83.90
56538;DHT22;42435;53.292;6.000;2022-09-09T06:18:56;16.50;83.90
56538;DHT22;42435;53.292;6.000;2022-09-09T06:21:28;16.50;83.80
56538;DHT22;42435;53.292;6.000;2022-09-09T06:23:55;16.50;83.70
56538;DHT22;42435;53.292;6.000;2022-09-09T06:26:24;16.60;83.50
56538;DHT22;42435;53.292;6.000;2022-09-09T06:28:53;16.70;83.40
56538;DHT22;42435;53.292;6.000;2022-09-09T06:31:21;16.70;83.20
56538;DHT22;42435;53.292;6.000;2022-09-09T06:33:48;16.70;83.20
56538;DHT22;42435;53.292;6.000;2022-09-09T06:36:22;16.70;83.30
56538;DHT22;42435;53.292;6.000;2022-09-09T06:38:48;16.80;83.20
56538;DHT22;42435;53.292;6.000;2022-09-09T06:41:19;16.70;83.20
56538;DHT22;42435;53.292;6.000;2022-09-09T06:43:46;16.80;83.20
56538;DHT22;42435;53.292;6.000;2022-09-09T06:46:14;16.90;83.20
56538;DHT22;42435;53.292;6.000;2022-09-09T06:48:40;16.90;83.20
56538;DHT22;42435;53.292;6.000;2022-09-09T06:51:11;16.90;83.10
56538;DHT22;42435;53.292;6.000;2022-09-09T06:53:38;16.90;83.10
56538;DHT22;42435;53.292;6.000;2022-09-09T06:58:36;17.00;83.00
56538;DHT22;42435;53.292;6.000;2022-09-09T07:01:06;17.10;83.10
56538;DHT22;42435;53.292;6.000;2022-09-09T07:03:32;17.20;82.90
56538;DHT22;42435;53.292;6.000;2022-09-09T07:05:59;17.20;82.80
56538;DHT22;42435;53.292;6.000;2022-09-09T07:08:25;17.30;82.60
56538;DHT22;42435;53.292;6.000;2022-09-09T07:10:52;17.30;82.40
56538;DHT22;42435;53.292;6.000;2022-09-09T07:13:26;17.30;82.30
56538;DHT22;42435;53.292;6.000;2022-09-09T07:15:52;17.40;82.20
56538;DHT22;42435;53.292;6.000;2022-09-09T07:18:19;17.40;82.10
56538;DHT22;42435;53.292;6.000;2022-09-09T07:20:55;17.40;82.10
56538;DHT22;42435;53.292;6.000;2022-09-09T07:23:21;17.40;82.10
56538;DHT22;42435;53.292;6.000;2022-09-09T07:25:47;17.40;82.10
56538;DHT22;42435;53.292;6.000;2022-09-09T07:28:14;17.50;82.00
56538;DHT22;42435;53.292;6.000;2022-09-09T07:30:40;17.50;81.90
56538;DHT22;42435;53.292;6.000;2022-09-09T07:33:06;17.50;81.90
56538;DHT22;42435;53.292;6.000;2022-09-09T07:35:32;17.40;81.80
56538;DHT22;42435;53.292;6.000;2022-09-09T07:38:01;17.50;81.80
56538;DHT22;42435;53.292;6.000;2022-09-09T07:40:26;17.60;81.60
56538;DHT22;42435;53.292;6.000;2022-09-09T07:42:52;17.70;81.40
56538;DHT22;42435;53.292;6.000;2022-09-09T07:45:19;17.90;81.20
56538;DHT22;42435;53.292;6.000;2022-09-09T07:47:44;18.00;80.70
56538;DHT22;42435;53.292;6.000;2022-09-09T07:50:10;18.20;80.30
56538;DHT22;42435;53.292;6.000;2022-09-09T07:52:36;18.30;79.90
56538;DHT22;42435;53.292;6.000;2022-09-09T07:55:02;18.40;79.60
56538;DHT22;42435;53.292;6.000;2022-09-09T07:57:30;18.60;79.10
56538;DHT22;42435;53.292;6.000;2022-09-09T07:59:57;18.60;78.80
56538;DHT22;42435;53.292;6.000;2022-09-09T08:02:23;18.70;78.80
56538;DHT22;42435;53.292;6.000;2022-09-09T08:04:50;18.80;78.60
56538;DHT22;42435;53.292;6.000;2022-09-09T08:07:17;18.90;78.40
56538;DHT22;42435;53.292;6.000;2022-09-09T08:09:42;19.00;78.30
56538;DHT22;42435;53.292;6.000;2022-09-09T08:12:09;19.20;78.20
56538;DHT22;42435;53.292;6.000;2022-09-09T08:14:36;19.30;77.80
56538;DHT22;42435;53.292;6.000;2022-09-09T08:17:01;19.40;77.50
56538;DHT22;42435;53.292;6.000;2022-09-09T08:19:27;19.40;77.30
56538;DHT22;42435;53.292;6.000;2022-09-09T08:21:55;19.40;77.10
56538;DHT22;42435;53.292;6.000;2022-09-09T08:24:21;19.50;76.80
56538;DHT22;42435;53.292;6.000;2022-09-09T08:26:48;19.50;76.60
56538;DHT22;42435;53.292;6.000;2022-09-09T08:29:15;19.50;76.60
56538;DHT22;42435;53.292;6.000;2022-09-09T08:34:11;19.70;76.20
56538;DHT22;42435;53.292;6.000;2022-09-09T08:36:43;19.80;76.20
56538;DHT22;42435;53.292;6.000;2022-09-09T08:39:11;19.90;76.20
56538;DHT22;42435;53.292;6.000;2022-09-09T08:52:38;20.70;74.20
56538;DHT22;42435;53.292;6.000;2022-09-09T08:55:41;20.80;74.00
56538;DHT22;42435;53.292;6.000;2022-09-09T08:58:17;20.90;74.30
56538;DHT22;42435;53.292;6.000;2022-09-09T09:01:09;20.90;73.90
56538;DHT22;42435;53.292;6.000;2022-09-09T09:11:51;20.90;73.00
56538;DHT22;42435;53.292;6.000;2022-09-09T09:14:23;21.00;72.90
56538;DHT22;42435;53.292;6.000;2022-09-09T09:17:01;21.00;72.50
56538;DHT22;42435;53.292;6.000;2022-09-09T09:19:30;21.00;73.10
56538;DHT22;42435;53.292;6.000;2022-09-09T09:22:20;21.00;73.00
56538;DHT22;42435;53.292;6.000;2022-09-09T09:24:54;21.10;72.30
56538;DHT22;42435;53.292;6.000;2022-09-09T09:30:19;21.00;72.20
56538;DHT22;42435;53.292;6.000;2022-09-09T09:32:57;21.10;72.20
56538;DHT22;42435;53.292;6.000;2022-09-09T09:35:24;21.00;71.90
56538;DHT22;42435;53.292;6.000;2022-09-09T09:37:50;20.90;72.30
56538;DHT22;42435;53.292;6.000;2022-09-09T09:40:18;20.90;72.60
56538;DHT22;42435;53.292;6.000;2022-09-09T09:42:53;20.80;72.80
56538;DHT22;42435;53.292;6.000;2022-09-09T09:45:41;20.80;72.50
56538;DHT22;42435;53.292;6.000;2022-09-09T09:48:11;20.80;72.70
56538;DHT22;42435;53.292;6.000;2022-09-09T09:50:48;20.70;72.80
56538;DHT22;42435;53.292;6.000;2022-09-09T09:53:29;20.70;72.60
56538;DHT22;42435;53.292;6.000;2022-09-09T09:56:15;20.60;72.20
56538;DHT22;42435;53.292;6.000;2022-09-09T10:03:55;20.30;72.90
56538;DHT22;42435;53.292;6.000;2022-09-09T10:06:38;20.20;72.90
56538;DHT22;42435;53.292;6.000;2022-09-09T10:09:27;20.10;72.70
56538;DHT22;42435;53.292;6.000;2022-09-09T10:15:22;20.30;72.70
56538;DHT22;42435;53.292;6.000;2022-09-09T10:20:54;20.90;71.40
56538;DHT22;42435;53.292;6.000;2022-09-09T10:34:56;22.20;68.40
56538;DHT22;42435;53.292;6.000;2022-09-09T10:43:25;22.40;67.20
56538;DHT22;42435;53.292;6.000;2022-09-09T10:51:27;22.20;67.50
56538;DHT22;42435;53.292;6.000;2022-09-09T10:54:24;22.30;67.20
56538;DHT22;42435;53.292;6.000;2022-09-09T10:57:22;22.70;67.50
56538;DHT22;42435;53.292;6.000;2022-09-09T10:59:53;23.20;65.70
56538;DHT22;42435;53.292;6.000;2022-09-09T11:02:26;23.50;64.40
56538;DHT22;42435;53.292;6.000;2022-09-09T11:04:57;23.70;63.70
56538;DHT22;42435;53.292;6.000;2022-09-09T11:07:44;23.80;62.80
56538;DHT22;42435;53.292;6.000;2022-09-09T11:10:23;23.80;63.10
56538;DHT22;42435;53.292;6.000;2022-09-09T11:12:54;23.90;63.00
56538;DHT22;42435;53.292;6.000;2022-09-09T11:15:29;24.10;62.40
56538;DHT22;42435;53.292;6.000;2022-09-09T11:17:59;24.40;61.60
56538;DHT22;42435;53.292;6.000;2022-09-09T11:20:26;24.70;61.00
56538;DHT22;42435;53.292;6.000;2022-09-09T11:23:03;25.10;59.90
56538;DHT22;42435;53.292;6.000;2022-09-09T11:25:36;25.20;59.70
56538;DHT22;42435;53.292;6.000;2022-09-09T11:33:27;25.80;57.00
56538;DHT22;42435;53.292;6.000;2022-09-09T11:39:07;25.30;58.20
56538;DHT22;42435;53.292;6.000;2022-09-09T11:41:40;25.10;57.80
56538;DHT22;42435;53.292;6.000;2022-09-09T11:44:16;24.90;59.20
56538;DHT22;42435;53.292;6.000;2022-09-09T11:46:46;25.00;58.50
56538;DHT22;42435;53.292;6.000;2022-09-09T11:49:29;25.10;58.60
56538;DHT22;42435;53.292;6.000;2022-09-09T11:52:34;25.40;57.00
56538;DHT22;42435;53.292;6.000;2022-09-09T11:55:27;25.60;56.30
56538;DHT22;42435;53.292;6.000;2022-09-09T11:58:15;25.80;55.30
56538;DHT22;42435;53.292;6.000;2022-09-09T12:00:43;25.90;55.70
56538;DHT22;42435;53.292;6.000;2022-09-09T12:03:43;26.10;54.80
56538;DHT22;42435;53.292;6.000;2022-09-09T12:06:26;26.30;54.40
56538;DHT22;42435;53.292;6.000;2022-09-09T12:09:05;26.40;54.30
56538;DHT22;42435;53.292;6.000;2022-09-09T12:11:32;26.30;54.50
56538;DHT22;42435;53.292;6.000;2022-09-09T12:13:59;26.20;54.20
56538;DHT22;42435;53.292;6.000;2022-09-09T12:16:33;26.00;54.50
56538;DHT22;42435;53.292;6.000;2022-09-09T12:19:22;25.90;54.60
56538;DHT22;42435;53.292;6.000;2022-09-09T12:22:15;25.80;54.40
56538;DHT22;42435;53.292;6.000;2022-09-09T12:27:52;25.60;55.10
56538;DHT22;42435;53.292;6.000;2022-09-09T12:30:24;25.30;55.10
56538;DHT22;42435;53.292;6.000;2022-09-09T12:33:11;25.00;55.50
56538;DHT22;42435;53.292;6.000;2022-09-09T12:35:43;25.00;55.90
56538;DHT22;42435;53.292;6.000;2022-09-09T12:38:21;24.90;56.60
56538;DHT22;42435;53.292;6.000;2022-09-09T12:41:15;24.80;56.50
56538;DHT22;42435;53.292;6.000;2022-09-09T12:43:44;24.70;56.50
56538;DHT22;42435;53.292;6.000;2022-09-09T12:47:01;24.50;56.80
56538;DHT22;42435;53.292;6.000;2022-09-09T12:49:03;24.40;57.10
56538;DHT22;42435;53.292;6.000;2022-09-09T12:51:30;24.20;57.80
56538;DHT22;42435;53.292;6.000;2022-09-09T12:53:57;24.10;58.10
56538;DHT22;42435;53.292;6.000;2022-09-09T12:56:30;24.00;58.60
56538;DHT22;42435;53.292;6.000;2022-09-09T12:58:57;24.00;58.60
56538;DHT22;42435;53.292;6.000;2022-09-09T13:01:24;23.80;59.10
56538;DHT22;42435;53.292;6.000;2022-09-09T13:03:50;23.70;59.40
56538;DHT22;42435;53.292;6.000;2022-09-09T13:06:22;23.60;59.90
56538;DHT22;42435;53.292;6.000;2022-09-09T13:08:48;23.60;60.10
56538;DHT22;42435;53.292;6.000;2022-09-09T13:11:19;23.60;60.00
56538;DHT22;42435;53.292;6.000;2022-09-09T13:13:55;23.50;60.30
56538;DHT22;42435;53.292;6.000;2022-09-09T13:16:28;23.50;60.60
56538;DHT22;42435;53.292;6.000;2022-09-09T13:18:59;23.50;60.70
56538;DHT22;42435;53.292;6.000;2022-09-09T13:21:37;23.60;60.50
56538;DHT22;42435;53.292;6.000;2022-09-09T13:24:05;23.90;59.70
56538;DHT22;42435;53.292;6.000;2022-09-09T13:26:33;24.20;58.70
56538;DHT22;42435;53.292;6.000;2022-09-09T13:29:17;24.40;57.80
56538;DHT22;42435;53.292;6.000;2022-09-09T13:31:46;24.40;57.70
56538;DHT22;42435;53.292;6.000;2022-09-09T13:34:29;24.40;58.30
56538;DHT22;42435;53.292;6.000;2022-09-09T13:37:00;24.40;58.00
56538;DHT22;42435;53.292;6.000;2022-09-09T13:39:33;24.50;57.80
56538;DHT22;42435;53.292;6.000;2022-09-09T13:42:00;24.60;57.60
56538;DHT22;42435;53.292;6.000;2022-09-09T13:44:35;24.40;57.50
56538;DHT22;42435;53.292;6.000;2022-09-09T13:49:29;24.00;59.50
56538;DHT22;42435;53.292;6.000;2022-09-09T13:52:11;24.00;59.50
56538;DHT22;42435;53.292;6.000;2022-09-09T13:54:39;24.30;58.50
56538;DHT22;42435;53.292;6.000;2022-09-09T13:57:05;24.40;58.20
56538;DHT22;42435;53.292;6.000;2022-09-09T13:59:31;24.50;58.50
56538;DHT22;42435;53.292;6.000;2022-09-09T14:01:57;24.50;58.00
56538;DHT22;42435;53.292;6.000;2022-09-09T14:04:23;24.40;58.20
56538;DHT22;42435;53.292;6.000;2022-09-09T14:06:50;24.30;58.70
56538;DHT22;42435;53.292;6.000;2022-09-09T14:09:17;24.10;59.10
56538;DHT22;42435;53.292;6.000;2022-09-09T14:11:44;23.90;59.60
56538;DHT22;42435;53.292;6.000;2022-09-09T14:14:11;23.80;59.90
56538;DHT22;42435;53.292;6.000;2022-09-09T14:16:37;23.70;60.00
56538;DHT22;42435;53.292;6.000;2022-09-09T14:19:03;23.70;60.70
56538;DHT22;42435;53.292;6.000;2022-09-09T14:21:29;23.60;60.60
56538;DHT22;42435;53.292;6.000;2022-09-09T14:23:55;23.60;61.20
56538;DHT22;42435;53.292;6.000;2022-09-09T14:26:21;23.80;61.90
56538;DHT22;42435;53.292;6.000;2022-09-09T14:28:47;23.90;61.70
56538;DHT22;42435;53.292;6.000;2022-09-09T14:31:13;23.90;60.80
56538;DHT22;42435;53.292;6.000;2022-09-09T14:33:39;23.80;60.90
56538;DHT22;42435;53.292;6.000;2022-09-09T14:36:05;23.70;61.50
56538;DHT22;42435;53.292;6.000;2022-09-09T14:38:37;23.70;61.50
56538;DHT22;42435;53.292;6.000;2022-09-09T14:41:13;23.60;61.60
56538;DHT22;42435;53.292;6.000;2022-09-09T14:43:42;23.40;61.80
56538;DHT22;42435;53.292;6.000;2022-09-09T14:46:10;23.30;62.20
56538;DHT22;42435;53.292;6.000;2022-09-09T14:48:36;23.30;62.60
56538;DHT22;42435;53.292;6.000;2022-09-09T14:51:10;23.40;62.30
56538;DHT22;42435;53.292;6.000;2022-09-09T14:53:36;23.50;61.90
56538;DHT22;42435;53.292;6.000;2022-09-09T14:56:11;23.50;61.40
56538;DHT22;42435;53.292;6.000;2022-09-09T14:58:37;23.50;61.70
56538;DHT22;42435;53.292;6.000;2022-09-09T15:01:12;23.30;62.10
56538;DHT22;42435;53.292;6.000;2022-09-09T15:03:38;23.30;62.50
56538;DHT22;42435;53.292;6.000;2022-09-09T15:08:34;23.40;62.20
56538;DHT22;42435;53.292;6.000;2022-09-09T15:11:02;23.60;61.70
56538;DHT22;42435;53.292;6.000;2022-09-09T15:13:28;23.70;61.10
56538;DHT22;42435;53.292;6.000;2022-09-09T15:15:53;23.80;60.70
56538;DHT22;42435;53.292;6.000;2022-09-09T15:18:20;23.80;60.60
56538;DHT22;42435;53.292;6.000;2022-09-09T15:20:46;23.70;60.70
56538;DHT22;42435;53.292;6.000;2022-09-09T15:23:12;23.50;61.00
56538;DHT22;42435;53.292;6.000;2022-09-09T15:25:37;23.30;61.10
56538;DHT22;42435;53.292;6.000;2022-09-09T15:28:03;23.10;61.10
56538;DHT22;42435;53.292;6.000;2022-09-09T15:30:29;23.00;61.30
56538;DHT22;42435;53.292;6.000;2022-09-09T15:32:54;22.90;61.60
56538;DHT22;42435;53.292;6.000;2022-09-09T15:35:20;22.60;62.30
56538;DHT22;42435;53.292;6.000;2022-09-09T15:37:45;22.30;63.40
56538;DHT22;42435;53.292;6.000;2022-09-09T15:40:11;21.90;63.80
56538;DHT22;42435;53.292;6.000;2022-09-09T15:42:37;21.60;64.60
56538;DHT22;42435;53.292;6.000;2022-09-09T15:45:03;21.40;65.00
56538;DHT22;42435;53.292;6.000;2022-09-09T15:47:31;21.10;65.70
56538;DHT22;42435;53.292;6.000;2022-09-09T15:49:57;20.90;66.60
56538;DHT22;42435;53.292;6.000;2022-09-09T15:52:23;20.80;67.30
56538;DHT22;42435;53.292;6.000;2022-09-09T15:54:48;20.90;67.60
56538;DHT22;42435;53.292;6.000;2022-09-09T15:57:14;20.90;67.60
56538;DHT22;42435;53.292;6.000;2022-09-09T15:59:40;20.80;67.80
56538;DHT22;42435;53.292;6.000;2022-09-09T16:02:06;20.80;68.20
56538;DHT22;42435;53.292;6.000;2022-09-09T16:04:32;20.80;68.30
56538;DHT22;42435;53.292;6.000;2022-09-09T16:07:02;20.80;68.60
56538;DHT22;42435;53.292;6.000;2022-09-09T16:09:29;20.80;68.90
56538;DHT22;42435;53.292;6.000;2022-09-09T16:12:03;20.80;69.00
56538;DHT22;42435;53.292;6.000;2022-09-09T16:14:34;20.70;69.60
56538;DHT22;42435;53.292;6.000;2022-09-09T16:17:02;20.60;69.70
56538;DHT22;42435;53.292;6.000;2022-09-09T16:19:28;20.60;70.30
56538;DHT22;42435;53.292;6.000;2022-09-09T16:21:53;20.60;70.20
56538;DHT22;42435;53.292;6.000;2022-09-09T16:24:20;20.50;70.30
56538;DHT22;42435;53.292;6.000;2022-09-09T16:26:48;20.50;70.50
56538;DHT22;42435;53.292;6.000;2022-09-09T16:29:15;20.40;70.60
56538;DHT22;42435;53.292;6.000;2022-09-09T16:31:42;20.40;70.90
56538;DHT22;42435;53.292;6.000;2022-09-09T16:34:08;20.30;70.90
56538;DHT22;42435;53.292;6.000;2022-09-09T16:36:36;20.10;71.30
56538;DHT22;42435;53.292;6.000;2022-09-09T16:39:05;20.00;71.60
56538;DHT22;42435;53.292;6.000;2022-09-09T16:41:31;19.90;71.70
56538;DHT22;42435;53.292;6.000;2022-09-09T16:44:05;19.90;71.80
56538;DHT22;42435;53.292;6.000;2022-09-09T16:46:33;19.70;72.00
56538;DHT22;42435;53.292;6.000;2022-09-09T16:49:00;19.70;72.00
56538;DHT22;42435;53.292;6.000;2022-09-09T16:51:38;19.60;72.30
56538;DHT22;42435;53.292;6.000;2022-09-09T16:54:06;19.60;72.50
56538;DHT22;42435;53.292;6.000;2022-09-09T16:56:33;19.50;72.70
56538;DHT22;42435;53.292;6.000;2022-09-09T16:59:04;19.40;72.90
56538;DHT22;42435;53.292;6.000;2022-09-09T17:01:33;19.40;72.90
56538;DHT22;42435;53.292;6.000;2022-09-09T17:04:01;19.40;73.30
56538;DHT22;42435;53.292;6.000;2022-09-09T17:06:29;19.40;73.50
56538;DHT22;42435;53.292;6.000;2022-09-09T17:08:57;19.30;73.80
56538;DHT22;42435;53.292;6.000;2022-09-09T17:11:23;19.20;73.80
56538;DHT22;42435;53.292;6.000;2022-09-09T17:13:50;19.20;73.90
56538;DHT22;42435;53.292;6.000;2022-09-09T17:16:17;19.10;74.00
56538;DHT22;42435;53.292;6.000;2022-09-09T17:18:44;19.00;74.20
56538;DHT22;42435;53.292;6.000;2022-09-09T17:21:17;19.00;74.30
56538;DHT22;42435;53.292;6.000;2022-09-09T17:23:44;18.90;74.60
56538;DHT22;42435;53.292;6.000;2022-09-09T17:26:13;18.90;74.50
56538;DHT22;42435;53.292;6.000;2022-09-09T17:28:40;18.80;74.70
56538;DHT22;42435;53.292;6.000;2022-09-09T17:31:07;18.80;74.80
56538;DHT22;42435;53.292;6.000;2022-09-09T17:33:34;18.70;75.00
56538;DHT22;42435;53.292;6.000;2022-09-09T17:36:06;18.70;75.10